Time,TemperatureF,DewpointF,PressureIn,WindDirection,WindDirectionDegrees,WindSpeedMPH,WindSpeedGustMPH,Humidity,HourlyPrecipIn,Conditions,Clouds,dailyrainin,SoftwareType,DateUTC
2013-03-17 00:00:00,25.2,14.4,29.91,NNW,329,0.0,1.0,63,0.00,,---,0.00,VWS V13.00,2013-03-17 04:00:00,
2013-03-17 00:05:00,25.1,13.6,29.91,NNW,329,0.0,1.0,61,0.00,,---,0.00,VWS V13.00,2013-03-17 04:05:00,
2013-03-17 00:10:00,24.9,14.1,29.91,NNW,329,0.0,0.0,63,0.00,,---,0.00,VWS V13.00,2013-03-17 04:10:00,
2013-03-17 00:15:00,24.8,14.4,29.91,NNW,329,0.0,0.0,64,0.00,,---,0.00,VWS V13.00,2013-03-17 04:15:00,
2013-03-17 00:20:00,24.7,14.6,29.91,NNW,329,0.0,0.0,65,0.00,,---,0.00,VWS V13.00,2013-03-17 04:20:00,
2013-03-17 00:25:00,24.6,13.8,29.91,NNW,329,0.0,1.0,63,0.00,,---,0.00,VWS V13.00,2013-03-17 04:25:00,
2013-03-17 00:30:00,24.5,13.7,29.91,NNW,329,0.0,1.0,63,0.00,,---,0.00,VWS V13.00,2013-03-17 04:30:00,
2013-03-17 00:35:00,24.4,14.0,29.91,NNW,329,0.0,1.0,64,0.00,,---,0.00,VWS V13.00,2013-03-17 04:35:00,
2013-03-17 00:40:00,24.4,13.6,29.92,NNW,329,0.0,0.0,63,0.00,,---,0.00,VWS V13.00,2013-03-17 04:40:00,
2013-03-17 00:45:00,24.3,13.5,29.91,NNW,329,0.0,0.0,63,0.00,,---,0.00,VWS V13.00,2013-03-17 04:45:00,
2013-03-17 00:50:00,24.2,13.4,29.91,NNW,329,1.0,1.0,63,0.00,,---,0.00,VWS V13.00,2013-03-17 04:50:00,
2013-03-17 00:55:00,24.2,13.4,29.92,NNW,329,0.0,1.0,63,0.00,,---,0.00,VWS V13.00,2013-03-17 04:55:00,
2013-03-17 01:00:00,24.1,13.3,29.91,NNW,329,0.0,2.0,63,0.00,,---,0.00,VWS V13.00,2013-03-17 05:00:00,
2013-03-17 01:05:00,24.0,14.3,29.92,NNW,329,0.0,2.0,66,0.00,,---,0.00,VWS V13.00,2013-03-17 05:05:00,
2013-03-17 01:10:00,23.9,13.9,29.91,NNW,329,0.0,0.0,65,0.00,,---,0.00,VWS V13.00,2013-03-17 05:10:00,
2013-03-17 01:15:00,23.8,14.1,29.92,NNW,329,0.0,0.0,66,0.00,,---,0.00,VWS V13.00,2013-03-17 05:15:00,
2013-03-17 01:20:00,23.6,13.6,29.92,NNW,329,0.0,1.0,65,0.00,,---,0.00,VWS V13.00,2013-03-17 05:20:00,
2013-03-17 01:25:00,23.5,13.5,29.92,NNW,329,0.0,1.0,65,0.00,,---,0.00,VWS V13.00,2013-03-17 05:25:00,
2013-03-17 01:30:00,23.4,14.1,29.92,NNW,329,0.0,1.0,67,0.00,,---,0.00,VWS V13.00,2013-03-17 05:30:00,
2013-03-17 01:35:00,23.3,13.6,29.92,NNW,329,0.0,1.0,66,0.00,,---,0.00,VWS V13.00,2013-03-17 05:35:00,
2013-03-17 01:40:00,23.1,13.4,29.92,NNW,329,0.0,1.0,66,0.00,,---,0.00,VWS V13.00,2013-03-17 05:40:00,
2013-03-17 01:45:00,23.0,13.4,29.92,NNW,329,0.0,1.0,66,0.00,,---,0.00,VWS V13.00,2013-03-17 05:45:00,
2013-03-17 01:50:00,23.0,13.7,29.92,NNW,329,0.0,1.0,67,0.00,,---,0.00,VWS V13.00,2013-03-17 05:50:00,
2013-03-17 01:55:00,22.9,13.9,29.92,NNW,329,0.0,1.0,68,0.00,,---,0.00,VWS V13.00,2013-03-17 05:55:00,
2013-03-17 02:00:00,22.9,13.9,29.92,NNW,329,0.0,1.0,68,0.00,,---,0.00,VWS V13.00,2013-03-17 06:00:00,
2013-03-17 02:05:00,22.8,13.8,29.92,NNW,329,0.0,1.0,68,0.00,,---,0.00,VWS V13.00,2013-03-17 06:05:00,
2013-03-17 02:10:00,22.7,14.4,29.92,NNW,329,0.0,0.0,70,0.00,,---,0.00,VWS V13.00,2013-03-17 06:10:00,
2013-03-17 02:15:00,22.7,14.1,29.92,NNW,329,0.0,0.0,69,0.00,,---,0.00,VWS V13.00,2013-03-17 06:15:00,
2013-03-17 02:20:00,22.6,14.0,29.92,NNW,329,0.0,0.0,69,0.00,,---,0.00,VWS V13.00,2013-03-17 06:20:00,
2013-03-17 02:25:00,22.5,13.9,29.92,NNW,329,0.0,1.0,69,0.00,,---,0.00,VWS V13.00,2013-03-17 06:25:00,
2013-03-17 02:30:00,22.4,13.4,29.92,NNW,329,0.0,2.0,68,0.00,,---,0.00,VWS V13.00,2013-03-17 06:30:00,
2013-03-17 02:35:00,22.4,13.8,29.92,NNW,329,2.0,2.0,69,0.00,,---,0.00,VWS V13.00,2013-03-17 06:35:00,
2013-03-17 02:40:00,22.5,13.9,29.92,NNW,329,0.0,3.0,69,0.00,,---,0.00,VWS V13.00,2013-03-17 06:40:00,
2013-03-17 02:45:00,22.5,13.9,29.92,NNW,329,0.0,3.0,69,0.00,,---,0.00,VWS V13.00,2013-03-17 06:45:00,
2013-03-17 02:50:00,22.5,13.9,29.92,NNW,329,0.0,3.0,69,0.00,,---,0.00,VWS V13.00,2013-03-17 06:50:00,
2013-03-17 02:55:00,22.5,13.6,29.93,NNW,329,1.0,3.0,68,0.00,,---,0.00,VWS V13.00,2013-03-17 06:55:00,
2013-03-17 03:00:00,22.5,13.6,29.93,NNW,329,0.0,3.0,68,0.00,,---,0.00,VWS V13.00,2013-03-17 07:00:00,
2013-03-17 03:05:00,22.5,13.2,29.93,NNW,329,2.0,3.0,67,0.00,,---,0.00,VWS V13.00,2013-03-17 07:05:00,
2013-03-17 03:10:00,22.4,13.1,29.93,NNW,329,0.0,2.0,67,0.00,,---,0.00,VWS V13.00,2013-03-17 07:10:00,
2013-03-17 03:15:00,22.3,13.0,29.93,NNW,329,0.0,2.0,67,0.00,,---,0.00,VWS V13.00,2013-03-17 07:15:00,
2013-03-17 03:20:00,22.2,12.9,29.93,NNW,329,0.0,3.0,67,0.00,,---,0.00,VWS V13.00,2013-03-17 07:20:00,
2013-03-17 03:25:00,22.1,12.8,29.93,NNW,329,0.0,3.0,67,0.00,,---,0.00,VWS V13.00,2013-03-17 07:25:00,
2013-03-17 03:30:00,22.1,12.8,29.93,NNW,329,1.0,3.0,67,0.00,,---,0.00,VWS V13.00,2013-03-17 07:30:00,
2013-03-17 03:35:00,22.0,12.4,29.93,NNW,329,0.0,3.0,66,0.00,,---,0.00,VWS V13.00,2013-03-17 07:35:00,
2013-03-17 03:40:00,22.0,12.7,29.93,NNW,329,0.0,2.0,67,0.00,,---,0.00,VWS V13.00,2013-03-17 07:40:00,
2013-03-17 03:45:00,21.9,12.3,29.93,NNW,329,0.0,2.0,66,0.00,,---,0.00,VWS V13.00,2013-03-17 07:45:00,
2013-03-17 03:50:00,22.0,12.4,29.93,NNW,329,0.0,3.0,66,0.00,,---,0.00,VWS V13.00,2013-03-17 07:50:00,
2013-03-17 03:55:00,21.9,12.6,29.94,NNW,329,1.0,3.0,67,0.00,,---,0.00,VWS V13.00,2013-03-17 07:55:00,
2013-03-17 04:00:00,21.8,12.5,29.94,NNW,329,0.0,3.0,67,0.00,,---,0.00,VWS V13.00,2013-03-17 08:00:00,
2013-03-17 04:05:00,21.7,12.8,29.94,NNW,329,1.0,3.0,68,0.00,,---,0.00,VWS V13.00,2013-03-17 08:05:00,
2013-03-17 04:10:00,21.6,13.3,29.94,NNW,329,1.0,2.0,70,0.00,,---,0.00,VWS V13.00,2013-03-17 08:10:00,
2013-03-17 04:15:00,21.5,13.2,29.94,NNW,329,1.0,2.0,70,0.00,,---,0.00,VWS V13.00,2013-03-17 08:15:00,
2013-03-17 04:20:00,21.4,13.1,29.94,NNW,329,0.0,2.0,70,0.00,,---,0.00,VWS V13.00,2013-03-17 08:20:00,
2013-03-17 04:25:00,21.3,13.7,29.94,NNW,329,1.0,2.0,72,0.00,,---,0.00,VWS V13.00,2013-03-17 08:25:00,
2013-03-17 04:30:00,21.2,13.6,29.94,NNW,329,0.0,2.0,72,0.00,,---,0.00,VWS V13.00,2013-03-17 08:30:00,
2013-03-17 04:35:00,21.1,13.5,29.94,NNW,329,0.0,2.0,72,0.00,,---,0.00,VWS V13.00,2013-03-17 08:35:00,
2013-03-17 04:40:00,21.0,13.7,29.94,NNW,329,0.0,1.0,73,0.00,,---,0.00,VWS V13.00,2013-03-17 08:40:00,
2013-03-17 04:45:00,20.9,13.9,29.94,NNW,329,0.0,2.0,74,0.00,,---,0.00,VWS V13.00,2013-03-17 08:45:00,
2013-03-17 04:50:00,20.9,13.9,29.94,NNW,329,0.0,3.0,74,0.00,,---,0.00,VWS V13.00,2013-03-17 08:50:00,
2013-03-17 04:55:00,20.8,13.8,29.94,NNW,329,1.0,3.0,74,0.00,,---,0.00,VWS V13.00,2013-03-17 08:55:00,
2013-03-17 05:00:00,20.8,13.8,29.94,NNW,329,0.0,3.0,74,0.00,,---,0.00,VWS V13.00,2013-03-17 09:00:00,
2013-03-17 05:05:00,20.7,13.4,29.95,NNW,329,0.0,3.0,73,0.00,,---,0.00,VWS V13.00,2013-03-17 09:05:00,
2013-03-17 05:10:00,20.7,13.7,29.95,NNW,329,0.0,0.0,74,0.00,,---,0.00,VWS V13.00,2013-03-17 09:10:00,
2013-03-17 05:15:00,20.7,14.0,29.95,NNW,329,0.0,0.0,75,0.00,,---,0.00,VWS V13.00,2013-03-17 09:15:00,
2013-03-17 05:20:00,20.6,13.6,29.95,NNW,329,0.0,0.0,74,0.00,,---,0.00,VWS V13.00,2013-03-17 09:20:00,
2013-03-17 05:25:00,20.6,13.6,29.95,NNW,329,0.0,0.0,74,0.00,,---,0.00,VWS V13.00,2013-03-17 09:25:00,
2013-03-17 05:30:00,20.5,14.1,29.96,NNW,329,0.0,0.0,76,0.00,,---,0.00,VWS V13.00,2013-03-17 09:30:00,
2013-03-17 05:35:00,20.4,14.1,29.96,NNW,329,0.0,0.0,76,0.00,,---,0.00,VWS V13.00,2013-03-17 09:35:00,
2013-03-17 05:40:00,20.2,13.9,29.96,NNW,329,0.0,0.0,76,0.00,,---,0.00,VWS V13.00,2013-03-17 09:40:00,
2013-03-17 05:45:00,20.0,13.4,29.96,NNW,329,0.0,0.0,75,0.00,,---,0.00,VWS V13.00,2013-03-17 09:45:00,
2013-03-17 05:50:00,19.8,13.5,29.96,NNW,329,0.0,0.0,76,0.00,,---,0.00,VWS V13.00,2013-03-17 09:50:00,
2013-03-17 05:55:00,19.7,13.4,29.96,NNW,329,0.0,0.0,76,0.00,,---,0.00,VWS V13.00,2013-03-17 09:55:00,
2013-03-17 06:00:00,19.7,13.7,29.97,NNW,329,0.0,0.0,77,0.00,,---,0.00,VWS V13.00,2013-03-17 10:00:00,
2013-03-17 06:05:00,19.5,13.5,29.97,NNW,329,0.0,0.0,77,0.00,,---,0.00,VWS V13.00,2013-03-17 10:05:00,
2013-03-17 06:10:00,19.4,13.4,29.97,NNW,328,0.0,4.0,77,0.00,,---,0.00,VWS V13.00,2013-03-17 10:10:00,
2013-03-17 06:15:00,19.7,14.0,29.97,NW,322,0.0,4.0,78,0.00,,---,0.00,VWS V13.00,2013-03-17 10:15:00,
2013-03-17 06:20:00,19.8,14.1,29.97,NW,322,1.0,4.0,78,0.00,,---,0.00,VWS V13.00,2013-03-17 10:20:00,
2013-03-17 06:25:00,20.0,14.0,29.97,NW,322,0.0,4.0,77,0.00,,---,0.00,VWS V13.00,2013-03-17 10:25:00,
2013-03-17 06:30:00,20.3,14.6,29.97,NW,323,2.0,5.0,78,0.00,,---,0.00,VWS V13.00,2013-03-17 10:30:00,
2013-03-17 06:35:00,20.4,14.6,29.97,NW,323,2.0,5.0,78,0.00,,---,0.00,VWS V13.00,2013-03-17 10:35:00,
2013-03-17 06:40:00,20.4,14.6,29.97,NW,321,2.0,5.0,78,0.00,,---,0.00,VWS V13.00,2013-03-17 10:40:00,
2013-03-17 06:45:00,20.4,14.6,29.97,NW,320,1.0,5.0,78,0.00,,---,0.00,VWS V13.00,2013-03-17 10:45:00,
2013-03-17 06:50:00,20.3,14.6,29.97,NW,315,1.0,5.0,78,0.00,,---,0.00,VWS V13.00,2013-03-17 10:50:00,
2013-03-17 06:55:00,20.4,14.6,29.98,NW,313,0.0,7.0,78,0.00,,---,0.00,VWS V13.00,2013-03-17 10:55:00,
2013-03-17 07:00:00,20.4,14.4,29.98,NW,311,0.0,7.0,77,0.00,,---,0.00,VWS V13.00,2013-03-17 11:00:00,
2013-03-17 07:05:00,20.3,14.6,29.98,NW,313,0.0,7.0,78,0.00,,---,0.00,VWS V13.00,2013-03-17 11:05:00,
2013-03-17 07:10:00,20.2,14.4,29.99,NW,313,1.0,4.0,78,0.00,,---,0.00,VWS V13.00,2013-03-17 11:10:00,
2013-03-17 07:15:00,20.0,14.3,30.00,NW,313,3.0,4.0,78,0.00,,---,0.00,VWS V13.00,2013-03-17 11:15:00,
2013-03-17 07:20:00,20.0,14.3,30.00,NW,312,2.0,6.0,78,0.00,,---,0.00,VWS V13.00,2013-03-17 11:20:00,
2013-03-17 07:25:00,19.9,14.2,30.01,NW,310,1.0,6.0,78,0.00,,---,0.00,VWS V13.00,2013-03-17 11:25:00,
2013-03-17 07:30:00,20.0,14.3,30.01,NW,306,1.0,7.0,78,0.00,,---,0.00,VWS V13.00,2013-03-17 11:30:00,
2013-03-17 07:35:00,20.0,14.3,30.02,WNW,302,3.0,9.0,78,0.00,,---,0.00,VWS V13.00,2013-03-17 11:35:00,
2013-03-17 07:40:00,20.3,14.6,30.02,WNW,298,4.0,8.0,78,0.00,,---,0.00,VWS V13.00,2013-03-17 11:40:00,
2013-03-17 07:45:00,20.4,14.6,30.02,West,279,2.0,8.0,78,0.00,,---,0.00,VWS V13.00,2013-03-17 11:45:00,
2013-03-17 07:50:00,20.6,14.6,30.03,West,276,4.0,8.0,77,0.00,,---,0.00,VWS V13.00,2013-03-17 11:50:00,
2013-03-17 07:55:00,20.9,14.8,30.03,WNW,290,4.0,8.0,77,0.00,,---,0.00,VWS V13.00,2013-03-17 11:55:00,
2013-03-17 08:00:00,21.1,14.7,30.04,West,279,5.0,13.0,76,0.00,,---,0.00,VWS V13.00,2013-03-17 12:00:00,
2013-03-17 08:05:00,21.3,14.6,30.04,North,360,3.0,13.0,75,0.00,,---,0.00,VWS V13.00,2013-03-17 12:05:00,
2013-03-17 08:10:00,21.6,14.6,30.04,NW,321,5.0,11.0,74,0.00,,---,0.00,VWS V13.00,2013-03-17 12:10:00,
2013-03-17 08:15:00,21.8,14.8,30.04,WNW,292,1.0,11.0,74,0.00,,---,0.00,VWS V13.00,2013-03-17 12:15:00,
2013-03-17 08:20:00,22.0,14.7,30.05,WNW,291,2.0,11.0,73,0.00,,---,0.00,VWS V13.00,2013-03-17 12:20:00,
2013-03-17 08:25:00,22.2,14.9,30.05,WNW,291,0.0,11.0,73,0.00,,---,0.00,VWS V13.00,2013-03-17 12:25:00,
2013-03-17 08:30:00,22.5,14.9,30.05,WNW,292,1.0,11.0,72,0.00,,---,0.00,VWS V13.00,2013-03-17 12:30:00,
2013-03-17 08:35:00,22.7,14.4,30.05,WNW,291,2.0,11.0,70,0.00,,---,0.00,VWS V13.00,2013-03-17 12:35:00,
2013-03-17 08:40:00,22.9,14.3,30.04,WNW,291,2.0,5.0,69,0.00,,---,0.00,VWS V13.00,2013-03-17 12:40:00,
2013-03-17 08:45:00,23.1,14.1,30.04,WNW,292,5.0,5.0,68,0.00,,---,0.00,VWS V13.00,2013-03-17 12:45:00,
2013-03-17 08:50:00,23.5,13.8,30.04,WNW,291,2.0,5.0,66,0.00,,---,0.00,VWS V13.00,2013-03-17 12:50:00,
2013-03-17 08:55:00,23.9,12.8,30.04,WNW,291,2.0,5.0,62,0.00,,---,0.00,VWS V13.00,2013-03-17 12:55:00,
2013-03-17 09:00:00,24.1,12.2,30.03,WNW,291,0.0,5.0,60,0.00,,---,0.00,VWS V13.00,2013-03-17 13:00:00,
2013-03-17 09:05:00,24.4,12.5,30.03,WNW,292,1.0,7.0,60,0.00,,---,0.00,VWS V13.00,2013-03-17 13:05:00,
2013-03-17 09:10:00,24.7,12.8,30.04,WNW,290,0.0,6.0,60,0.00,,---,0.00,VWS V13.00,2013-03-17 13:10:00,
2013-03-17 09:15:00,25.0,13.1,30.03,WNW,291,3.0,6.0,60,0.00,,---,0.00,VWS V13.00,2013-03-17 13:15:00,
2013-03-17 09:20:00,25.2,12.9,30.03,WNW,289,2.0,6.0,59,0.00,,---,0.00,VWS V13.00,2013-03-17 13:20:00,
2013-03-17 09:25:00,25.5,13.2,30.03,WNW,289,2.0,6.0,59,0.00,,---,0.00,VWS V13.00,2013-03-17 13:25:00,
2013-03-17 09:30:00,25.9,13.9,30.04,WSW,257,6.0,9.0,60,0.00,,---,0.00,VWS V13.00,2013-03-17 13:30:00,
2013-03-17 09:35:00,26.3,13.1,30.04,West,275,3.0,9.0,57,0.00,,---,0.00,VWS V13.00,2013-03-17 13:35:00,
2013-03-17 09:40:00,26.4,14.0,30.04,WSW,252,2.0,6.0,59,0.00,,---,0.00,VWS V13.00,2013-03-17 13:40:00,
2013-03-17 09:45:00,26.9,14.1,30.03,WSW,256,0.0,6.0,58,0.00,,---,0.00,VWS V13.00,2013-03-17 13:45:00,
2013-03-17 09:50:00,26.8,13.6,30.03,WNW,296,5.0,15.0,57,0.00,,---,0.00,VWS V13.00,2013-03-17 13:50:00,
2013-03-17 09:55:00,26.9,14.1,30.03,West,265,1.0,15.0,58,0.00,,---,0.00,VWS V13.00,2013-03-17 13:55:00,
2013-03-17 10:00:00,27.6,14.8,30.04,NW,304,2.0,15.0,58,0.00,,---,0.00,VWS V13.00,2013-03-17 14:00:00,
2013-03-17 10:05:00,28.0,14.8,30.04,NW,309,6.0,15.0,57,0.00,,---,0.00,VWS V13.00,2013-03-17 14:05:00,
2013-03-17 10:10:00,28.4,14.3,30.05,West,280,5.0,12.0,55,0.00,,---,0.00,VWS V13.00,2013-03-17 14:10:00,
2013-03-17 10:15:00,29.0,15.3,30.05,WNW,303,1.0,12.0,56,0.00,,---,0.00,VWS V13.00,2013-03-17 14:15:00,
2013-03-17 10:20:00,28.3,14.2,30.05,WNW,287,10.0,12.0,55,0.00,,---,0.00,VWS V13.00,2013-03-17 14:20:00,
2013-03-17 10:25:00,27.7,14.5,30.05,NW,304,2.0,13.0,57,0.00,,---,0.00,VWS V13.00,2013-03-17 14:25:00,
2013-03-17 10:30:00,27.4,13.8,30.06,NW,323,10.0,14.0,56,0.00,,---,0.00,VWS V13.00,2013-03-17 14:30:00,
2013-03-17 10:35:00,27.4,14.6,30.06,NNW,343,6.0,14.0,58,0.00,,---,0.00,VWS V13.00,2013-03-17 14:35:00,
2013-03-17 10:40:00,27.5,13.9,30.06,NW,308,1.0,13.0,56,0.00,,---,0.00,VWS V13.00,2013-03-17 14:40:00,
2013-03-17 10:45:00,27.5,13.9,30.06,NW,304,0.0,13.0,56,0.00,,---,0.00,VWS V13.00,2013-03-17 14:45:00,
2013-03-17 10:50:00,27.8,14.2,30.06,WNW,302,2.0,13.0,56,0.00,,---,0.00,VWS V13.00,2013-03-17 14:50:00,
2013-03-17 10:55:00,28.4,14.3,30.06,NW,304,5.0,13.0,55,0.00,,---,0.00,VWS V13.00,2013-03-17 14:55:00,
2013-03-17 11:00:00,29.2,14.6,30.07,North,11,0.0,13.0,54,0.00,,---,0.00,VWS V13.00,2013-03-17 15:00:00,
2013-03-17 11:05:00,29.9,14.4,30.07,West,269,4.0,13.0,52,0.00,,---,0.00,VWS V13.00,2013-03-17 15:05:00,
2013-03-17 11:10:00,29.7,14.7,30.07,West,273,3.0,12.0,53,0.00,,---,0.00,VWS V13.00,2013-03-17 15:10:00,
2013-03-17 11:15:00,29.4,14.0,30.07,WNW,287,4.0,14.0,52,0.00,,---,0.00,VWS V13.00,2013-03-17 15:15:00,
2013-03-17 11:20:00,29.8,14.8,30.08,WNW,282,6.0,14.0,53,0.00,,---,0.00,VWS V13.00,2013-03-17 15:20:00,
2013-03-17 11:25:00,30.1,14.6,30.07,NNW,344,4.0,14.0,52,0.00,,---,0.00,VWS V13.00,2013-03-17 15:25:00,
2013-03-17 11:30:00,30.5,15.0,30.07,WNW,294,4.0,14.0,52,0.00,,---,0.00,VWS V13.00,2013-03-17 15:30:00,
2013-03-17 11:35:00,30.5,14.5,30.07,WNW,284,3.0,14.0,51,0.00,,---,0.00,VWS V13.00,2013-03-17 15:35:00,
2013-03-17 11:40:00,30.4,13.5,30.08,NW,309,6.0,11.0,49,0.00,,---,0.00,VWS V13.00,2013-03-17 15:40:00,
2013-03-17 11:45:00,29.7,13.4,30.08,West,281,3.0,11.0,50,0.00,,---,0.00,VWS V13.00,2013-03-17 15:45:00,
2013-03-17 11:50:00,29.8,13.4,30.07,WNW,287,4.0,13.0,50,0.00,,---,0.00,VWS V13.00,2013-03-17 15:50:00,
2013-03-17 11:55:00,30.0,13.2,30.07,West,259,6.0,13.0,49,0.00,,---,0.00,VWS V13.00,2013-03-17 15:55:00,
2013-03-17 12:00:00,30.6,13.3,30.07,WSW,242,9.0,15.0,48,0.00,,---,0.00,VWS V13.00,2013-03-17 16:00:00,
2013-03-17 12:05:00,31.0,13.1,30.07,NW,313,4.0,15.0,47,0.00,,---,0.00,VWS V13.00,2013-03-17 16:05:00,
2013-03-17 12:10:00,31.2,14.7,30.07,NW,307,5.0,8.0,50,0.00,,---,0.00,VWS V13.00,2013-03-17 16:10:00,
2013-03-17 12:15:00,31.7,13.3,30.07,NW,318,5.0,10.0,46,0.00,,---,0.00,VWS V13.00,2013-03-17 16:15:00,
2013-03-17 12:20:00,32.7,13.7,30.07,West,276,4.0,14.0,45,0.00,,---,0.00,VWS V13.00,2013-03-17 16:20:00,
2013-03-17 12:25:00,32.7,12.7,30.07,West,281,1.0,14.0,43,0.00,,---,0.00,VWS V13.00,2013-03-17 16:25:00,
2013-03-17 12:30:00,32.0,12.1,30.07,NW,313,2.0,14.0,43,0.00,,---,0.00,VWS V13.00,2013-03-17 16:30:00,
2013-03-17 12:35:00,32.4,12.9,30.07,NW,321,5.0,14.0,44,0.00,,---,0.00,VWS V13.00,2013-03-17 16:35:00,
2013-03-17 12:40:00,32.2,11.7,30.07,NNW,344,12.0,17.0,42,0.00,,---,0.00,VWS V13.00,2013-03-17 16:40:00,
2013-03-17 12:45:00,31.5,10.5,30.07,NW,319,3.0,17.0,41,0.00,,---,0.00,VWS V13.00,2013-03-17 16:45:00,
2013-03-17 12:50:00,31.9,10.9,30.07,West,272,3.0,17.0,41,0.00,,---,0.00,VWS V13.00,2013-03-17 16:50:00,
2013-03-17 12:55:00,32.4,11.3,30.07,NW,310,9.0,17.0,41,0.00,,---,0.00,VWS V13.00,2013-03-17 16:55:00,
2013-03-17 13:00:00,32.3,10.1,30.07,NW,309,9.0,18.0,39,0.00,,---,0.00,VWS V13.00,2013-03-17 17:00:00,
2013-03-17 13:05:00,32.2,10.0,30.08,WNW,289,4.0,18.0,39,0.00,,---,0.00,VWS V13.00,2013-03-17 17:05:00,
2013-03-17 13:10:00,32.3,10.1,30.08,NNW,345,2.0,19.0,39,0.00,,---,0.00,VWS V13.00,2013-03-17 17:10:00,
2013-03-17 13:15:00,32.6,9.8,30.08,NW,307,15.0,23.0,38,0.00,,---,0.00,VWS V13.00,2013-03-17 17:15:00,
2013-03-17 13:20:00,32.3,9.0,30.08,NNW,342,5.0,23.0,37,0.00,,---,0.00,VWS V13.00,2013-03-17 17:20:00,
2013-03-17 13:25:00,32.7,9.9,30.07,NW,318,7.0,23.0,38,0.00,,---,0.00,VWS V13.00,2013-03-17 17:25:00,
2013-03-17 13:30:00,33.0,10.2,30.07,West,275,5.0,23.0,38,0.00,,---,0.00,VWS V13.00,2013-03-17 17:30:00,
2013-03-17 13:35:00,33.4,9.9,30.08,North,9,14.0,23.0,37,0.00,,---,0.00,VWS V13.00,2013-03-17 17:35:00,
2013-03-17 13:40:00,33.7,10.8,30.08,North,349,6.0,11.0,38,0.00,,---,0.00,VWS V13.00,2013-03-17 17:40:00,
2013-03-17 13:45:00,33.7,10.2,30.07,WNW,294,4.0,14.0,37,0.00,,---,0.00,VWS V13.00,2013-03-17 17:45:00,
2013-03-17 13:50:00,33.9,11.6,30.07,NNW,337,3.0,22.0,39,0.00,,---,0.00,VWS V13.00,2013-03-17 17:50:00,
2013-03-17 13:55:00,34.2,11.3,30.07,NW,318,7.0,22.0,38,0.00,,---,0.00,VWS V13.00,2013-03-17 17:55:00,
2013-03-17 14:00:00,33.5,10.0,30.07,NNW,346,10.0,22.0,37,0.00,,---,0.00,VWS V13.00,2013-03-17 18:00:00,
2013-03-17 14:05:00,33.0,10.2,30.07,NW,314,11.0,22.0,38,0.00,,---,0.00,VWS V13.00,2013-03-17 18:05:00,
2013-03-17 14:09:00,33.0,10.2,30.07,NW,307,7.0,17.0,38,0.00,,---,0.00,VWS V13.00,2013-03-17 18:09:00,
2013-03-17 14:14:00,33.5,9.4,30.08,NNW,338,0.0,17.0,36,0.00,,---,0.00,VWS V13.00,2013-03-17 18:14:00,
2013-03-17 14:19:00,33.8,10.3,30.07,West,277,7.0,17.0,37,0.00,,---,0.00,VWS V13.00,2013-03-17 18:19:00,
2013-03-17 14:24:00,33.7,10.2,30.08,WNW,288,4.0,17.0,37,0.00,,---,0.00,VWS V13.00,2013-03-17 18:24:00,
2013-03-17 14:29:00,33.4,9.9,30.08,West,275,10.0,17.0,37,0.00,,---,0.00,VWS V13.00,2013-03-17 18:29:00,
2013-03-17 14:34:00,33.1,9.7,30.08,NNE,33,2.0,17.0,37,0.00,,---,0.00,VWS V13.00,2013-03-17 18:34:00,
2013-03-17 14:39:00,33.7,9.6,30.08,NNW,340,2.0,13.0,36,0.00,,---,0.00,VWS V13.00,2013-03-17 18:39:00,
2013-03-17 14:44:00,33.8,10.3,30.08,WNW,301,11.0,14.0,37,0.00,,---,0.00,VWS V13.00,2013-03-17 18:44:00,
2013-03-17 14:49:00,33.9,10.4,30.08,North,360,4.0,14.0,37,0.00,,---,0.00,VWS V13.00,2013-03-17 18:49:00,
2013-03-17 14:54:00,33.9,10.4,30.08,WNW,302,4.0,15.0,37,0.00,,---,0.00,VWS V13.00,2013-03-17 18:54:00,
2013-03-17 14:59:00,33.6,9.5,30.08,NW,310,13.0,15.0,36,0.00,,---,0.00,VWS V13.00,2013-03-17 18:59:00,
2013-03-17 15:04:00,33.7,10.2,30.09,NNE,12,8.0,15.0,37,0.00,,---,0.00,VWS V13.00,2013-03-17 19:04:00,
2013-03-17 15:09:00,33.9,11.6,30.09,WNW,294,4.0,6.0,39,0.00,,---,0.00,VWS V13.00,2013-03-17 19:09:00,
2013-03-17 15:14:00,33.9,10.4,30.09,NW,310,7.0,12.0,37,0.00,,---,0.00,VWS V13.00,2013-03-17 19:14:00,
2013-03-17 15:19:00,33.8,12.1,30.09,WNW,292,3.0,15.0,40,0.00,,---,0.00,VWS V13.00,2013-03-17 19:19:00,
2013-03-17 15:24:00,33.6,11.3,30.09,WNW,303,9.0,15.0,39,0.00,,---,0.00,VWS V13.00,2013-03-17 19:24:00,
2013-03-17 15:29:00,33.0,9.6,30.10,NW,322,0.0,16.0,37,0.00,,---,0.00,VWS V13.00,2013-03-17 19:29:00,
2013-03-17 15:34:00,33.5,11.8,30.10,North,351,6.0,16.0,40,0.00,,---,0.00,VWS V13.00,2013-03-17 19:34:00,
2013-03-17 15:39:00,33.9,11.6,30.10,WNW,303,7.0,14.0,39,0.00,,---,0.00,VWS V13.00,2013-03-17 19:39:00,
2013-03-17 15:44:00,33.9,11.6,30.10,West,275,2.0,15.0,39,0.00,,---,0.00,VWS V13.00,2013-03-17 19:44:00,
2013-03-17 15:49:00,33.5,10.6,30.10,WNW,286,4.0,15.0,38,0.00,,---,0.00,VWS V13.00,2013-03-17 19:49:00,
2013-03-17 15:54:00,33.3,11.6,30.10,NNW,327,2.0,15.0,40,0.00,,---,0.00,VWS V13.00,2013-03-17 19:54:00,
2013-03-17 15:59:00,33.8,11.5,30.11,NNW,332,5.0,15.0,39,0.00,,---,0.00,VWS V13.00,2013-03-17 19:59:00,
2013-03-17 16:04:00,33.7,10.2,30.11,NW,304,5.0,15.0,37,0.00,,---,0.00,VWS V13.00,2013-03-17 20:04:00,
2013-03-17 16:09:00,32.9,11.2,30.11,North,355,5.0,13.0,40,0.00,,---,0.00,VWS V13.00,2013-03-17 20:09:00,
2013-03-17 16:14:00,32.7,10.5,30.11,NW,319,6.0,13.0,39,0.00,,---,0.00,VWS V13.00,2013-03-17 20:14:00,
2013-03-17 16:19:00,32.8,10.6,30.11,NW,322,4.0,13.0,39,0.00,,---,0.00,VWS V13.00,2013-03-17 20:19:00,
2013-03-17 16:24:00,32.9,11.2,30.11,North,349,5.0,14.0,40,0.00,,---,0.00,VWS V13.00,2013-03-17 20:24:00,
2013-03-17 16:29:00,32.6,10.4,30.12,West,271,4.0,14.0,39,0.00,,---,0.00,VWS V13.00,2013-03-17 20:29:00,
2013-03-17 16:34:00,32.2,10.0,30.12,WNW,298,2.0,14.0,39,0.00,,---,0.00,VWS V13.00,2013-03-17 20:34:00,
2013-03-17 16:39:00,32.3,10.7,30.12,WSW,253,6.0,12.0,40,0.00,,---,0.00,VWS V13.00,2013-03-17 20:39:00,
2013-03-17 16:44:00,32.2,10.6,30.12,West,270,3.0,12.0,40,0.00,,---,0.00,VWS V13.00,2013-03-17 20:44:00,
2013-03-17 16:49:00,32.5,9.7,30.12,WSW,257,2.0,14.0,38,0.00,,---,0.00,VWS V13.00,2013-03-17 20:49:00,
2013-03-17 16:54:00,32.2,10.0,30.12,North,349,5.0,14.0,39,0.00,,---,0.00,VWS V13.00,2013-03-17 20:54:00,
2013-03-17 16:59:00,32.4,11.3,30.12,WNW,295,4.0,14.0,41,0.00,,---,0.00,VWS V13.00,2013-03-17 20:59:00,
2013-03-17 17:04:00,32.4,10.8,30.12,WNW,300,1.0,14.0,40,0.00,,---,0.00,VWS V13.00,2013-03-17 21:04:00,
2013-03-17 17:09:00,32.3,11.2,30.13,WNW,298,4.0,7.0,41,0.00,,---,0.00,VWS V13.00,2013-03-17 21:09:00,
2013-03-17 17:14:00,32.1,10.5,30.13,NW,325,5.0,9.0,40,0.00,,---,0.00,VWS V13.00,2013-03-17 21:14:00,
2013-03-17 17:19:00,31.7,11.2,30.13,NNW,333,7.0,9.0,42,0.00,,---,0.00,VWS V13.00,2013-03-17 21:19:00,
2013-03-17 17:24:00,31.5,10.0,30.14,WNW,300,1.0,10.0,40,0.00,,---,0.00,VWS V13.00,2013-03-17 21:24:00,
2013-03-17 17:29:00,31.2,10.2,30.14,WNW,295,10.0,10.0,41,0.00,,---,0.00,VWS V13.00,2013-03-17 21:29:00,
2013-03-17 17:34:00,30.8,9.9,30.14,NNW,340,0.0,13.0,41,0.00,,---,0.00,VWS V13.00,2013-03-17 21:34:00,
2013-03-17 17:39:00,30.6,10.2,30.14,WNW,289,2.0,4.0,42,0.00,,---,0.00,VWS V13.00,2013-03-17 21:39:00,
2013-03-17 17:44:00,30.7,10.9,30.14,NW,326,5.0,13.0,43,0.00,,---,0.00,VWS V13.00,2013-03-17 21:44:00,
2013-03-17 17:49:00,30.5,10.2,30.15,NW,310,2.0,13.0,42,0.00,,---,0.00,VWS V13.00,2013-03-17 21:49:00,
2013-03-17 17:54:00,30.3,10.5,30.15,NW,307,2.0,13.0,43,0.00,,---,0.00,VWS V13.00,2013-03-17 21:54:00,
2013-03-17 17:59:00,30.1,10.3,30.16,NNW,347,3.0,13.0,43,0.00,,---,0.00,VWS V13.00,2013-03-17 21:59:00,
2013-03-17 18:04:00,29.9,10.6,30.16,NW,311,3.0,13.0,44,0.00,,---,0.00,VWS V13.00,2013-03-17 22:04:00,
2013-03-17 18:09:00,29.8,9.0,30.16,NW,323,1.0,9.0,41,0.00,,---,0.00,VWS V13.00,2013-03-17 22:09:00,
2013-03-17 18:14:00,29.6,9.9,30.16,NW,317,1.0,11.0,43,0.00,,---,0.00,VWS V13.00,2013-03-17 22:14:00,
2013-03-17 18:19:00,29.4,10.2,30.16,WNW,294,7.0,11.0,44,0.00,,---,0.00,VWS V13.00,2013-03-17 22:19:00,
2013-03-17 18:24:00,29.0,9.8,30.16,WNW,302,3.0,11.0,44,0.00,,---,0.00,VWS V13.00,2013-03-17 22:24:00,
2013-03-17 18:29:00,28.8,10.1,30.16,WNW,295,4.0,11.0,45,0.00,,---,0.00,VWS V13.00,2013-03-17 22:29:00,
2013-03-17 18:34:00,28.6,10.0,30.17,West,261,3.0,11.0,45,0.00,,---,0.00,VWS V13.00,2013-03-17 22:34:00,
2013-03-17 18:39:00,28.4,10.8,30.17,NW,304,2.0,4.0,47,0.00,,---,0.00,VWS V13.00,2013-03-17 22:39:00,
2013-03-17 18:44:00,28.3,10.7,30.17,WNW,300,1.0,7.0,47,0.00,,---,0.00,VWS V13.00,2013-03-17 22:44:00,
2013-03-17 18:49:00,28.1,10.0,30.18,NW,317,0.0,7.0,46,0.00,,---,0.00,VWS V13.00,2013-03-17 22:49:00,
2013-03-17 18:54:00,27.9,10.8,30.18,WNW,291,1.0,10.0,48,0.00,,---,0.00,VWS V13.00,2013-03-17 22:54:00,
2013-03-17 18:59:00,27.7,10.1,30.19,NNW,346,4.0,10.0,47,0.00,,---,0.00,VWS V13.00,2013-03-17 22:59:00,
2013-03-17 19:04:00,27.5,10.4,30.19,NNW,337,2.0,10.0,48,0.00,,---,0.00,VWS V13.00,2013-03-17 23:04:00,
2013-03-17 19:09:00,27.3,10.2,30.19,WNW,298,7.0,7.0,48,0.00,,---,0.00,VWS V13.00,2013-03-17 23:09:00,
2013-03-17 19:14:00,27.1,9.1,30.20,NW,306,3.0,10.0,46,0.00,,---,0.00,VWS V13.00,2013-03-17 23:14:00,
2013-03-17 19:19:00,27.0,10.4,30.20,NW,315,7.0,10.0,49,0.00,,---,0.00,VWS V13.00,2013-03-17 23:19:00,
2013-03-17 19:24:00,26.9,10.8,30.21,NW,310,2.0,10.0,50,0.00,,---,0.00,VWS V13.00,2013-03-17 23:24:00,
2013-03-17 19:29:00,26.8,9.3,30.21,WNW,294,1.0,12.0,47,0.00,,---,0.00,VWS V13.00,2013-03-17 23:29:00,
2013-03-17 19:34:00,26.6,9.1,30.21,NW,316,1.0,12.0,47,0.00,,---,0.00,VWS V13.00,2013-03-17 23:34:00,
2013-03-17 19:39:00,26.4,8.9,30.22,NW,309,5.0,13.0,47,0.00,,---,0.00,VWS V13.00,2013-03-17 23:39:00,
2013-03-17 19:44:00,26.3,8.8,30.22,NNW,339,4.0,13.0,47,0.00,,---,0.00,VWS V13.00,2013-03-17 23:44:00,
2013-03-17 19:49:00,26.2,8.3,30.22,NW,318,0.0,13.0,46,0.00,,---,0.00,VWS V13.00,2013-03-17 23:49:00,
2013-03-17 19:54:00,26.1,8.6,30.22,NW,313,1.0,13.0,47,0.00,,---,0.00,VWS V13.00,2013-03-17 23:54:00,
2013-03-17 19:59:00,25.9,8.9,30.23,NW,315,4.0,13.0,48,0.00,,---,0.00,VWS V13.00,2013-03-17 23:59:00,
2013-03-17 20:04:00,25.7,9.2,30.23,NW,316,2.0,13.0,49,0.00,,---,0.00,VWS V13.00,2013-03-18 00:04:00,
2013-03-17 20:09:00,25.5,9.0,30.23,NNW,337,5.0,7.0,49,0.00,,---,0.00,VWS V13.00,2013-03-18 00:09:00,
2013-03-17 20:14:00,25.3,8.4,30.23,NNW,348,2.0,7.0,48,0.00,,---,0.00,VWS V13.00,2013-03-18 00:14:00,
2013-03-17 20:19:00,25.1,8.6,30.24,NW,325,9.0,9.0,49,0.00,,---,0.00,VWS V13.00,2013-03-18 00:19:00,
2013-03-17 20:24:00,24.9,8.9,30.24,NW,309,2.0,9.0,50,0.00,,---,0.00,VWS V13.00,2013-03-18 00:24:00,
2013-03-17 20:29:00,24.8,7.9,30.25,NNW,328,2.0,9.0,48,0.00,,---,0.00,VWS V13.00,2013-03-18 00:29:00,
2013-03-17 20:34:00,24.6,7.7,30.25,NW,321,3.0,9.0,48,0.00,,---,0.00,VWS V13.00,2013-03-18 00:34:00,
2013-03-17 20:39:00,24.4,8.0,30.25,NW,323,2.0,7.0,49,0.00,,---,0.00,VWS V13.00,2013-03-18 00:39:00,
2013-03-17 20:44:00,24.2,8.3,30.26,NW,326,2.0,7.0,50,0.00,,---,0.00,VWS V13.00,2013-03-18 00:44:00,
2013-03-17 20:49:00,24.0,8.1,30.27,NW,322,1.0,7.0,50,0.00,,---,0.00,VWS V13.00,2013-03-18 00:49:00,
2013-03-17 20:54:00,23.9,7.5,30.27,NW,321,1.0,7.0,49,0.00,,---,0.00,VWS V13.00,2013-03-18 00:54:00,
2013-03-17 20:59:00,23.7,7.8,30.27,NW,321,0.0,7.0,50,0.00,,---,0.00,VWS V13.00,2013-03-18 00:59:00,
2013-03-17 21:04:00,23.6,7.3,30.27,NW,321,0.0,7.0,49,0.00,,---,0.00,VWS V13.00,2013-03-18 01:04:00,
2013-03-17 21:09:00,23.5,7.2,30.27,NW,316,0.0,6.0,49,0.00,,---,0.00,VWS V13.00,2013-03-18 01:09:00,
2013-03-17 21:14:00,23.4,7.1,30.28,NW,319,3.0,9.0,49,0.00,,---,0.00,VWS V13.00,2013-03-18 01:14:00,
2013-03-17 21:19:00,23.3,7.4,30.28,NW,317,3.0,9.0,50,0.00,,---,0.00,VWS V13.00,2013-03-18 01:19:00,
2013-03-17 21:24:00,23.2,7.3,30.29,NW,317,0.0,9.0,50,0.00,,---,0.00,VWS V13.00,2013-03-18 01:24:00,
2013-03-17 21:29:00,23.0,8.0,30.29,NW,325,1.0,9.0,52,0.00,,---,0.00,VWS V13.00,2013-03-18 01:29:00,
2013-03-17 21:34:00,22.8,7.4,30.29,NNW,346,2.0,10.0,51,0.00,,---,0.00,VWS V13.00,2013-03-18 01:34:00,
2013-03-17 21:39:00,22.7,8.1,30.29,NNW,333,1.0,5.0,53,0.00,,---,0.00,VWS V13.00,2013-03-18 01:39:00,
2013-03-17 21:44:00,22.5,7.1,30.29,NW,306,1.0,6.0,51,0.00,,---,0.00,VWS V13.00,2013-03-18 01:44:00,
2013-03-17 21:49:00,22.3,6.5,30.29,NNW,348,4.0,8.0,50,0.00,,---,0.00,VWS V13.00,2013-03-18 01:49:00,
2013-03-17 21:54:00,22.2,6.4,30.30,NNW,334,4.0,8.0,50,0.00,,---,0.00,VWS V13.00,2013-03-18 01:54:00,
2013-03-17 21:59:00,22.1,6.3,30.30,North,360,3.0,8.0,50,0.00,,---,0.00,VWS V13.00,2013-03-18 01:59:00,
2013-03-17 22:04:00,22.0,6.2,30.30,North,11,5.0,8.0,50,0.00,,---,0.00,VWS V13.00,2013-03-18 02:04:00,
2013-03-17 22:09:00,21.8,5.1,30.31,NW,315,3.0,6.0,48,0.00,,---,0.00,VWS V13.00,2013-03-18 02:09:00,
2013-03-17 22:14:00,21.7,5.5,30.31,NW,304,1.0,9.0,49,0.00,,---,0.00,VWS V13.00,2013-03-18 02:14:00,
2013-03-17 22:19:00,21.6,5.4,30.31,NW,313,0.0,12.0,49,0.00,,---,0.00,VWS V13.00,2013-03-18 02:19:00,
2013-03-17 22:24:00,21.4,6.1,30.31,NW,319,2.0,12.0,51,0.00,,---,0.00,VWS V13.00,2013-03-18 02:24:00,
2013-03-17 22:29:00,21.3,5.6,30.31,NNW,333,1.0,12.0,50,0.00,,---,0.00,VWS V13.00,2013-03-18 02:29:00,
2013-03-17 22:34:00,21.1,5.4,30.32,NW,321,5.0,12.0,50,0.00,,---,0.00,VWS V13.00,2013-03-18 02:34:00,
2013-03-17 22:39:00,21.0,5.7,30.32,NW,325,3.0,11.0,51,0.00,,---,0.00,VWS V13.00,2013-03-18 02:39:00,
2013-03-17 22:44:00,20.9,5.2,30.32,NNW,332,6.0,11.0,50,0.00,,---,0.00,VWS V13.00,2013-03-18 02:44:00,
2013-03-17 22:49:00,20.8,5.1,30.32,North,360,3.0,11.0,50,0.00,,---,0.00,VWS V13.00,2013-03-18 02:49:00,
2013-03-17 22:54:00,20.8,4.7,30.33,NE,36,1.0,12.0,49,0.00,,---,0.00,VWS V13.00,2013-03-18 02:54:00,
2013-03-17 22:59:00,20.7,5.4,30.33,NNW,346,4.0,12.0,51,0.00,,---,0.00,VWS V13.00,2013-03-18 02:59:00,
2013-03-17 23:04:00,20.6,4.9,30.33,NW,318,5.0,12.0,50,0.00,,---,0.00,VWS V13.00,2013-03-18 03:04:00,
2013-03-17 23:09:00,20.4,5.6,30.33,NNW,342,4.0,5.0,52,0.00,,---,0.00,VWS V13.00,2013-03-18 03:09:00,
2013-03-17 23:14:00,20.3,5.5,30.33,NNW,338,2.0,5.0,52,0.00,,---,0.00,VWS V13.00,2013-03-18 03:14:00,
2013-03-17 23:19:00,20.1,5.3,30.33,NNW,333,3.0,5.0,52,0.00,,---,0.00,VWS V13.00,2013-03-18 03:19:00,
2013-03-17 23:24:00,20.0,4.8,30.34,NW,323,3.0,7.0,51,0.00,,---,0.00,VWS V13.00,2013-03-18 03:24:00,
2013-03-17 23:29:00,19.8,5.0,30.33,NNW,329,2.0,8.0,52,0.00,,---,0.00,VWS V13.00,2013-03-18 03:29:00,
2013-03-17 23:34:00,19.7,5.3,30.33,NNW,335,2.0,10.0,53,0.00,,---,0.00,VWS V13.00,2013-03-18 03:34:00,
2013-03-17 23:39:00,19.7,4.5,30.33,NW,319,2.0,6.0,51,0.00,,---,0.00,VWS V13.00,2013-03-18 03:39:00,
2013-03-17 23:44:00,19.5,5.6,30.34,NW,314,5.0,9.0,54,0.00,,---,0.00,VWS V13.00,2013-03-18 03:44:00,
2013-03-17 23:49:00,19.4,5.1,30.33,NW,325,2.0,9.0,53,0.00,,---,0.00,VWS V13.00,2013-03-18 03:49:00,
2013-03-17 23:54:00,19.2,4.9,30.33,NNW,333,2.0,9.0,53,0.00,,---,0.00,VWS V13.00,2013-03-18 03:54:00,
2013-03-17 23:59:00,19.0,4.7,30.33,WNW,300,1.0,9.0,53,0.00,,---,0.00,VWS V13.00,2013-03-18 03:59:00,